Ashland, New Hampshire
Current Conditions -  °F | °C
As of 7:35 PM on Saturday 25 Oct 2014 (Local Time) from K1P1 Reporting Station
Light Rain Light Rain  
Wind Chill: 52°   Ceiling: 8000
Heat Index: 52°   Visibility: 10mi
Dew Point: 49°   Wind: 0mph
Humidity: 89%   Direction: NA
Pressure: 29.54"   Gusts: NA
Location:  43.7°N, 71.63°W
Report Text: K1P1 252335Z AUTO 00000KT 10SM -RA BKN080 OVC090 11/09 A2954 RMK AO2 T01120094
Loading
Personal Weather Stations






























Interactive Weather Map
Tropical Storm Tracking
New forecast layout! Learn more

10-Day Weather Forecast

Advertisements
Track Severe Weather on mobile